createdAt,value
2018-03-27T00:01:07.003Z,31.77
2018-03-27T00:03:34.533Z,33.75
2018-03-27T00:06:02.081Z,31.92
2018-03-27T00:08:29.618Z,33.28
2018-03-27T00:10:57.152Z,32.58
2018-03-27T00:13:24.696Z,31.95
2018-03-27T00:15:52.225Z,33.60
2018-03-27T00:18:20.764Z,34.50
2018-03-27T00:20:48.295Z,34.75
2018-03-27T00:23:15.847Z,32.45
2018-03-27T00:25:43.374Z,33.75
2018-03-27T00:28:16.673Z,34.08
2018-03-27T00:30:49.731Z,34.13
2018-03-27T00:33:22.730Z,34.30
2018-03-27T00:35:55.876Z,30.55
2018-03-27T00:38:29.014Z,31.77
2018-03-27T00:40:56.070Z,32.42
2018-03-27T00:43:23.638Z,31.48
2018-03-27T00:45:51.175Z,31.37
2018-03-27T00:48:18.742Z,34.33
2018-03-27T00:50:46.289Z,32.05
2018-03-27T00:53:13.856Z,34.03
2018-03-27T00:55:41.413Z,33.33
2018-03-27T00:58:08.970Z,34.65
2018-03-27T01:00:36.496Z,32.90
2018-03-27T01:03:04.062Z,34.35
2018-03-27T01:05:31.590Z,33.88
2018-03-27T01:07:59.132Z,34.17
2018-03-27T01:10:26.669Z,34.47
2018-03-27T01:12:54.222Z,33.72
2018-03-27T01:15:21.752Z,34.08
2018-03-27T01:17:49.301Z,36.05
2018-03-27T01:20:16.853Z,32.25
2018-03-27T01:22:44.416Z,34.75
2018-03-27T01:25:11.955Z,34.50
2018-03-27T01:27:39.500Z,33.50
2018-03-27T01:30:07.029Z,33.58
2018-03-27T01:32:34.581Z,34.60
2018-03-27T01:35:02.108Z,35.53
2018-03-27T01:37:29.682Z,36.47
2018-03-27T01:39:57.213Z,34.67
2018-03-27T01:42:24.761Z,35.90
2018-03-27T01:44:52.291Z,34.25
2018-03-27T01:47:19.846Z,35.30
2018-03-27T01:49:47.373Z,35.88
2018-03-27T01:52:14.924Z,35.45
2018-03-27T01:54:42.455Z,36.17
2018-03-27T01:57:10.027Z,34.95
2018-03-27T01:59:37.558Z,36.53
2018-03-27T02:02:05.128Z,34.88
2018-03-27T02:04:32.676Z,35.40
2018-03-27T02:07:00.232Z,36.88
2018-03-27T02:09:27.773Z,36.17
2018-03-27T02:12:00.834Z,36.60
2018-03-27T02:14:33.900Z,38.67
2018-03-27T02:17:06.838Z,36.78
2018-03-27T02:19:39.781Z,36.42
2018-03-27T02:22:06.703Z,37.63
2018-03-27T02:24:34.611Z,37.25
2018-03-27T02:27:02.150Z,36.53
2018-03-27T02:29:29.707Z,37.70
2018-03-27T02:31:57.242Z,36.15
2018-03-27T02:34:24.782Z,35.80
2018-03-27T02:36:52.339Z,36.15
2018-03-27T02:39:19.874Z,37.15
2018-03-27T02:41:47.406Z,37.28
2018-03-27T02:44:14.970Z,37.38
2018-03-27T02:46:42.503Z,34.67
2018-03-27T02:49:10.047Z,37.38
2018-03-27T02:51:37.378Z,36.38
2018-03-27T02:54:04.681Z,36.08
2018-03-27T02:56:31.997Z,35.30
2018-03-27T02:58:59.323Z,38.10
2018-03-27T03:01:26.634Z,38.95
2018-03-27T03:03:53.962Z,37.70
2018-03-27T03:06:21.517Z,35.83
2018-03-27T03:08:49.040Z,35.03
2018-03-27T03:11:16.578Z,37.55
2018-03-27T03:13:44.146Z,35.15
2018-03-27T03:16:11.677Z,34.83
2018-03-27T03:18:39.226Z,34.35
2018-03-27T03:21:06.762Z,35.90
2018-03-27T03:23:34.298Z,36.13
2018-03-27T03:26:01.841Z,35.42
2018-03-27T03:28:29.380Z,36.50
2018-03-27T03:30:56.933Z,34.85
2018-03-27T03:33:24.485Z,37.03
2018-03-27T03:35:52.021Z,36.15
2018-03-27T03:38:19.570Z,34.63
2018-03-27T03:40:47.105Z,35.10
2018-03-27T03:43:14.653Z,35.67
2018-03-27T03:45:42.184Z,34.88
2018-03-27T03:48:09.758Z,35.42
2018-03-27T03:50:37.316Z,35.47
2018-03-27T03:53:04.868Z,34.70
2018-03-27T03:55:32.610Z,34.53
2018-03-27T03:58:00.176Z,33.70
2018-03-27T04:00:27.776Z,32.17
2018-03-27T04:02:55.453Z,33.53
2018-03-27T04:05:23.006Z,34.75
2018-03-27T04:07:50.530Z,34.75
2018-03-27T04:10:18.074Z,33.22
2018-03-27T04:12:46.541Z,33.70
2018-03-27T04:15:13.861Z,38.33
2018-03-27T04:17:41.421Z,37.22
2018-03-27T04:20:08.972Z,36.45
2018-03-27T04:22:36.499Z,37.47
2018-03-27T04:25:04.056Z,37.83
2018-03-27T04:27:31.595Z,38.70
2018-03-27T04:29:59.156Z,37.30
2018-03-27T04:32:27.705Z,36.97
2018-03-27T04:34:55.261Z,37.35
2018-03-27T04:37:22.788Z,35.53
2018-03-27T04:39:50.338Z,38.05
2018-03-27T04:42:17.872Z,37.15
2018-03-27T04:44:45.424Z,40.95
2018-03-27T04:47:12.957Z,39.22
2018-03-27T04:49:40.505Z,37.90
2018-03-27T04:52:08.048Z,36.53
2018-03-27T04:54:35.603Z,38.53
2018-03-27T04:57:03.138Z,37.70
2018-03-27T04:59:30.685Z,38.85
2018-03-27T05:01:58.242Z,37.47
2018-03-27T05:04:25.776Z,38.10
2018-03-27T05:06:53.319Z,41.25
2018-03-27T05:09:20.882Z,39.40
2018-03-27T05:11:48.415Z,38.60
2018-03-27T05:14:15.966Z,39.13
2018-03-27T05:16:43.502Z,38.45
2018-03-27T05:19:11.050Z,39.85
2018-03-27T05:21:38.581Z,39.92
2018-03-27T05:24:06.173Z,39.60
2018-03-27T05:26:33.750Z,37.72
2018-03-27T05:29:01.462Z,38.33
2018-03-27T05:31:28.997Z,40.33
2018-03-27T05:33:56.938Z,36.17
2018-03-27T05:36:24.503Z,40.85
2018-03-27T05:38:52.040Z,41.35
2018-03-27T05:41:19.572Z,43.47
2018-03-27T05:43:47.135Z,42.42
2018-03-27T05:46:14.668Z,41.75
2018-03-27T05:48:42.234Z,41.53
2018-03-27T05:51:09.770Z,44.55
2018-03-27T05:53:37.318Z,42.78
2018-03-27T05:56:05.243Z,41.88
2018-03-27T05:58:32.921Z,41.50
2018-03-27T06:01:00.545Z,40.72
2018-03-27T06:03:28.209Z,42.90
2018-03-27T06:05:55.774Z,40.72
2018-03-27T06:08:23.314Z,44.42
2018-03-27T06:10:50.893Z,44.80
2018-03-27T06:13:18.424Z,46.47
2018-03-27T06:15:45.982Z,43.60
2018-03-27T06:18:13.527Z,43.58
2018-03-27T06:20:41.082Z,44.70
2018-03-27T06:23:08.638Z,45.72
2018-03-27T06:25:36.181Z,40.83
2018-03-27T06:28:03.738Z,40.90
2018-03-27T06:30:31.059Z,41.85
2018-03-27T06:32:58.624Z,42.10
2018-03-27T06:35:26.185Z,42.50
2018-03-27T06:37:53.743Z,40.88
2018-03-27T06:40:21.299Z,41.30
2018-03-27T06:42:48.862Z,39.13
2018-03-27T06:45:16.398Z,46.03
2018-03-27T06:47:44.009Z,43.10
2018-03-27T06:50:11.725Z,46.70
2018-03-27T06:52:39.261Z,42.13
2018-03-27T06:55:06.813Z,45.42
2018-03-27T06:57:34.359Z,46.08
2018-03-27T07:00:01.921Z,44.80
2018-03-27T07:02:29.648Z,44.00
2018-03-27T07:04:57.185Z,43.33
2018-03-27T07:07:24.757Z,42.03
2018-03-27T07:09:52.332Z,42.65
2018-03-27T07:12:20.061Z,40.97
2018-03-27T07:14:47.818Z,44.67
2018-03-27T07:17:15.355Z,43.50
2018-03-27T07:19:42.909Z,44.38
2018-03-27T07:22:10.455Z,43.85
2018-03-27T07:24:37.985Z,40.12
2018-03-27T07:27:06.529Z,41.92
2018-03-27T07:29:34.066Z,42.67
2018-03-27T07:32:01.627Z,43.20
2018-03-27T07:34:29.170Z,41.45
2018-03-27T07:36:56.700Z,45.83
2018-03-27T07:39:24.251Z,41.05
2018-03-27T07:41:51.816Z,40.65
2018-03-27T07:44:19.381Z,37.25
2018-03-27T07:46:46.917Z,36.08
2018-03-27T07:49:14.443Z,37.22
2018-03-27T07:51:41.999Z,35.90
2018-03-27T07:54:09.808Z,37.55
2018-03-27T07:56:37.427Z,36.13
2018-03-27T07:59:04.961Z,36.60
2018-03-27T08:01:32.498Z,35.40
2018-03-27T08:04:00.044Z,34.97
2018-03-27T08:06:27.573Z,35.10
2018-03-27T08:08:55.119Z,34.80
2018-03-27T08:11:22.669Z,31.83
2018-03-27T08:13:50.203Z,32.65
2018-03-27T08:16:17.761Z,30.05
2018-03-27T08:18:45.285Z,32.95
2018-03-27T08:21:12.928Z,32.75
2018-03-27T08:23:41.466Z,30.15
2018-03-27T08:26:09.032Z,30.52
2018-03-27T08:28:36.573Z,32.38
2018-03-27T08:31:04.140Z,30.75
2018-03-27T08:33:31.673Z,32.10
2018-03-27T08:35:59.234Z,31.25
2018-03-27T08:38:26.758Z,29.98
2018-03-27T08:40:54.320Z,31.95
2018-03-27T08:43:21.887Z,33.80
2018-03-27T08:45:49.605Z,29.85
2018-03-27T08:48:17.154Z,28.50
2018-03-27T08:50:44.697Z,29.70
2018-03-27T08:53:12.234Z,28.23
2018-03-27T08:55:39.789Z,31.42
2018-03-27T08:58:07.317Z,29.00
2018-03-27T09:00:34.894Z,26.98
2018-03-27T09:03:02.429Z,29.85
2018-03-27T09:05:29.963Z,28.35
2018-03-27T09:07:57.520Z,25.27
2018-03-27T09:10:25.051Z,26.20
2018-03-27T09:12:52.593Z,27.10
2018-03-27T09:15:20.128Z,25.37
2018-03-27T09:17:47.665Z,23.70
2018-03-27T09:20:15.225Z,25.37
2018-03-27T09:22:42.778Z,24.05
2018-03-27T09:25:11.255Z,25.50
2018-03-27T09:27:38.795Z,24.73
2018-03-27T09:30:06.332Z,23.05
2018-03-27T09:32:33.924Z,24.73
2018-03-27T09:35:01.461Z,22.95
2018-03-27T09:37:29.019Z,22.98
2018-03-27T09:39:56.554Z,22.58
2018-03-27T09:42:24.097Z,23.73
2018-03-27T09:44:51.651Z,23.38
2018-03-27T09:47:19.173Z,23.10
2018-03-27T09:49:47.722Z,22.90
2018-03-27T09:52:15.263Z,22.08
2018-03-27T09:54:43.737Z,25.40
2018-03-27T09:57:11.296Z,22.75
2018-03-27T09:59:38.596Z,20.62
2018-03-27T10:02:05.900Z,19.77
2018-03-27T10:04:33.429Z,21.45
2018-03-27T10:07:00.963Z,20.17
2018-03-27T10:09:28.518Z,21.48
2018-03-27T10:11:56.058Z,21.02
2018-03-27T10:14:23.613Z,21.30
2018-03-27T10:16:51.158Z,21.23
2018-03-27T10:19:18.688Z,20.95
2018-03-27T10:21:46.238Z,21.48
2018-03-27T10:24:13.769Z,20.30
2018-03-27T10:26:41.337Z,21.50
2018-03-27T10:29:08.869Z,19.73
2018-03-27T10:31:36.414Z,21.05
2018-03-27T10:34:03.970Z,36.97
2018-03-27T10:36:31.529Z,21.92
2018-03-27T10:38:59.073Z,21.80
2018-03-27T10:41:26.590Z,19.15
2018-03-27T10:43:54.129Z,16.30
2018-03-27T10:46:21.689Z,15.40
2018-03-27T10:48:49.233Z,17.05
2018-03-27T10:51:17.499Z,17.75
2018-03-27T10:53:45.036Z,14.15
2018-03-27T10:56:12.604Z,16.17
2018-03-27T10:58:40.153Z,17.08
2018-03-27T11:01:18.205Z,15.52
2018-03-27T11:03:45.787Z,17.08
2018-03-27T11:06:13.501Z,19.10
2018-03-27T11:08:41.068Z,18.15
2018-03-27T11:11:08.596Z,17.42
2018-03-27T11:13:36.166Z,19.40
2018-03-27T11:16:03.701Z,17.75
2018-03-27T11:18:31.272Z,18.95
2018-03-27T11:20:58.805Z,19.50
2018-03-27T11:23:27.353Z,19.98
2018-03-27T11:25:54.909Z,19.73
2018-03-27T11:28:22.466Z,18.27
2018-03-27T11:30:49.999Z,20.37
2018-03-27T11:33:17.553Z,18.83
2018-03-27T11:35:45.097Z,17.67
2018-03-27T11:38:12.648Z,18.02
2018-03-27T11:40:40.202Z,18.62
2018-03-27T11:43:07.742Z,17.70
2018-03-27T11:45:35.277Z,18.75
2018-03-27T11:48:03.843Z,19.27
2018-03-27T11:50:31.386Z,20.60
2018-03-27T11:52:58.943Z,17.60
2018-03-27T11:55:26.489Z,18.83
2018-03-27T11:57:54.018Z,17.10
2018-03-27T12:00:21.586Z,14.38
2018-03-27T12:02:49.116Z,13.38
2018-03-27T12:05:16.680Z,15.10
2018-03-27T12:07:44.222Z,16.05
2018-03-27T12:10:11.780Z,16.58
2018-03-27T12:12:41.197Z,16.42
2018-03-27T12:15:08.986Z,14.73
2018-03-27T12:17:36.667Z,15.80
2018-03-27T12:20:05.242Z,18.23
2018-03-27T12:22:32.562Z,16.08
2018-03-27T12:25:00.102Z,17.25
2018-03-27T12:27:27.652Z,16.65
2018-03-27T12:29:55.204Z,17.00
2018-03-27T12:32:22.762Z,16.58
2018-03-27T12:34:50.294Z,16.15
2018-03-27T12:37:17.853Z,15.85
2018-03-27T12:39:45.397Z,15.40
2018-03-27T12:42:12.716Z,16.80
2018-03-27T12:44:40.150Z,17.30
2018-03-27T12:47:07.401Z,17.27
2018-03-27T12:49:34.677Z,18.67
2018-03-27T12:52:01.926Z,17.77
2018-03-27T12:54:29.201Z,15.50
2018-03-27T12:56:56.451Z,16.83
2018-03-27T12:59:23.729Z,16.60
2018-03-27T13:01:51.003Z,17.57
2018-03-27T13:04:18.246Z,17.80
2018-03-27T13:06:45.521Z,17.47
2018-03-27T13:09:12.777Z,15.87
2018-03-27T13:11:40.954Z,16.47
2018-03-27T13:14:08.223Z,15.77
2018-03-27T13:16:35.761Z,14.15
2018-03-27T13:19:03.024Z,15.80
2018-03-27T13:21:30.266Z,14.83
2018-03-27T13:23:57.513Z,16.17
2018-03-27T13:26:24.773Z,16.27
2018-03-27T13:28:52.020Z,14.70
2018-03-27T13:31:20.293Z,14.90
2018-03-27T13:33:47.545Z,15.93
2018-03-27T13:36:15.080Z,14.60
2018-03-27T13:38:42.360Z,14.87
2018-03-27T13:41:09.626Z,13.80
2018-03-27T13:43:37.889Z,12.83
2018-03-27T13:46:05.439Z,13.98
2018-03-27T13:48:32.992Z,13.27
2018-03-27T13:51:00.569Z,14.60
2018-03-27T13:53:28.153Z,14.93
2018-03-27T13:55:56.810Z,14.43
2018-03-27T13:58:24.368Z,13.35
2018-03-27T14:00:51.906Z,12.48
2018-03-27T14:03:22.038Z,12.98
2018-03-27T14:05:50.545Z,13.05
2018-03-27T14:08:18.117Z,14.55
2018-03-27T14:10:45.665Z,13.85
2018-03-27T14:13:14.722Z,12.98
2018-03-27T14:15:43.298Z,13.55
2018-03-27T14:18:10.865Z,13.18
2018-03-27T14:20:39.405Z,13.77
2018-03-27T14:23:06.665Z,14.80
2018-03-27T14:25:33.912Z,13.33
2018-03-27T14:28:01.186Z,14.17
2018-03-27T14:30:29.379Z,13.20
2018-03-27T14:32:56.648Z,13.40
2018-03-27T14:35:23.904Z,13.87
2018-03-27T14:37:51.153Z,13.80
2018-03-27T14:40:19.405Z,13.47
2018-03-27T14:42:46.810Z,13.60
2018-03-27T14:45:14.147Z,13.73
2018-03-27T14:47:41.397Z,12.67
2018-03-27T14:50:08.662Z,12.47
2018-03-27T14:52:35.702Z,11.97
2018-03-27T14:55:02.977Z,12.33
2018-03-27T14:57:31.248Z,13.43
2018-03-27T14:59:58.505Z,11.90
2018-03-27T15:02:25.753Z,13.57
2018-03-27T15:04:54.068Z,13.03
2018-03-27T15:07:21.325Z,13.30
2018-03-27T15:09:48.610Z,11.97
2018-03-27T15:12:15.866Z,12.00
2018-03-27T15:14:43.426Z,12.45
2018-03-27T15:17:11.016Z,11.25
2018-03-27T15:19:38.578Z,11.77
2018-03-27T15:22:06.136Z,11.73
2018-03-27T15:24:34.673Z,11.40
2018-03-27T15:27:01.964Z,13.20
2018-03-27T15:29:29.237Z,12.00
2018-03-27T15:31:57.445Z,12.40
2018-03-27T15:34:24.711Z,12.73
2018-03-27T15:36:51.961Z,12.57
2018-03-27T15:39:19.230Z,12.03
2018-03-27T15:41:46.501Z,12.57
2018-03-27T15:44:13.777Z,12.30
2018-03-27T15:46:41.033Z,11.50
2018-03-27T15:49:09.309Z,11.90
2018-03-27T15:51:36.565Z,11.67
2018-03-27T15:54:03.834Z,11.67
2018-03-27T15:56:31.106Z,15.50
2018-03-27T15:58:59.325Z,10.43
2018-03-27T16:01:26.566Z,11.97
2018-03-27T16:03:53.834Z,12.10
2018-03-27T16:06:21.146Z,16.55
2018-03-27T16:08:48.421Z,15.07
2018-03-27T16:11:15.679Z,11.90
2018-03-27T16:13:42.949Z,12.30
2018-03-27T16:16:10.226Z,11.20
2018-03-27T16:18:37.506Z,13.70
2018-03-27T16:21:04.799Z,10.90
2018-03-27T16:23:32.056Z,10.63
2018-03-27T16:25:59.356Z,12.57
2018-03-27T16:28:26.822Z,11.03
2018-03-27T16:30:54.074Z,22.97
2018-03-27T16:33:21.340Z,14.90
2018-03-27T16:35:49.552Z,11.50
2018-03-27T16:38:16.817Z,14.87
2018-03-27T16:40:44.077Z,13.33
2018-03-27T16:43:11.584Z,43.57
2018-03-27T16:45:38.842Z,32.73
2018-03-27T16:48:06.978Z,13.10
2018-03-27T16:50:34.516Z,11.23
2018-03-27T16:53:03.068Z,13.30
2018-03-27T16:55:30.614Z,12.93
2018-03-27T16:57:58.187Z,10.10
2018-03-27T17:00:25.748Z,10.27
2018-03-27T17:02:53.293Z,10.23
2018-03-27T17:05:20.870Z,11.25
2018-03-27T17:07:48.452Z,11.23
2018-03-27T17:10:16.160Z,13.65
2018-03-27T17:12:43.717Z,17.27
2018-03-27T17:15:11.274Z,14.60
2018-03-27T17:17:38.821Z,8.68
2018-03-27T17:20:06.360Z,9.30
2018-03-27T17:22:33.893Z,9.60
2018-03-27T17:25:01.458Z,12.80
2018-03-27T17:27:29.002Z,9.15
2018-03-27T17:29:56.558Z,9.20
2018-03-27T17:32:24.084Z,9.63
2018-03-27T17:34:51.624Z,8.70
2018-03-27T17:37:19.180Z,12.35
2018-03-27T17:39:46.710Z,8.60
2018-03-27T17:42:14.233Z,8.95
2018-03-27T17:44:41.763Z,10.02
2018-03-27T17:47:09.303Z,8.52
2018-03-27T17:49:36.856Z,10.52
2018-03-27T17:52:04.425Z,9.02
2018-03-27T17:54:31.961Z,8.80
2018-03-27T17:56:59.490Z,9.15
2018-03-27T17:59:27.036Z,13.07
2018-03-27T18:01:54.594Z,22.20
2018-03-27T18:04:22.120Z,28.48
2018-03-27T18:06:49.694Z,15.38
2018-03-27T18:09:17.225Z,12.15
2018-03-27T18:11:44.760Z,11.05
2018-03-27T18:14:13.232Z,13.62
2018-03-27T18:16:40.784Z,12.48
2018-03-27T18:19:08.337Z,10.07
2018-03-27T18:21:35.872Z,8.30
2018-03-27T18:24:03.393Z,7.72
2018-03-27T18:26:30.913Z,9.18
2018-03-27T18:28:58.210Z,8.98
2018-03-27T18:31:25.781Z,8.40
2018-03-27T18:33:53.332Z,9.93
2018-03-27T18:36:20.862Z,8.82
2018-03-27T18:38:48.404Z,9.77
2018-03-27T18:41:15.942Z,8.98
2018-03-27T18:43:43.533Z,20.95
2018-03-27T18:46:11.085Z,10.88
2018-03-27T18:48:38.613Z,9.63
2018-03-27T18:51:05.908Z,14.70
2018-03-27T18:53:33.438Z,12.30
2018-03-27T18:56:01.014Z,12.07
2018-03-27T18:58:28.549Z,11.85
2018-03-27T19:00:56.081Z,12.48
2018-03-27T19:03:23.618Z,11.38
2018-03-27T19:05:51.149Z,11.52
2018-03-27T19:08:18.704Z,16.17
2018-03-27T19:10:46.238Z,11.48
2018-03-27T19:13:13.800Z,13.10
2018-03-27T19:15:41.330Z,12.52
2018-03-27T19:18:08.885Z,12.23
2018-03-27T19:20:36.418Z,13.52
2018-03-27T19:23:03.970Z,12.32
2018-03-27T19:25:31.533Z,15.18
2018-03-27T19:27:59.091Z,12.27
2018-03-27T19:30:26.651Z,15.80
2018-03-27T19:32:54.381Z,11.70
2018-03-27T19:35:21.924Z,13.73
2018-03-27T19:37:49.465Z,13.40
2018-03-27T19:40:17.011Z,12.82
2018-03-27T19:42:44.565Z,13.73
2018-03-27T19:45:12.093Z,13.20
2018-03-27T19:47:40.595Z,12.57
2018-03-27T19:50:08.130Z,13.20
2018-03-27T19:52:35.674Z,13.70
2018-03-27T19:55:03.230Z,12.85
2018-03-27T19:57:30.764Z,13.38
2018-03-27T19:59:58.314Z,14.80
2018-03-27T20:02:26.057Z,12.63
2018-03-27T20:04:53.618Z,11.85
2018-03-27T20:07:21.173Z,13.50
2018-03-27T20:09:48.722Z,12.48
2018-03-27T20:12:16.249Z,14.30
2018-03-27T20:14:43.805Z,12.60
2018-03-27T20:17:11.353Z,12.98
2018-03-27T20:19:38.885Z,11.60
2018-03-27T20:22:06.422Z,10.95
2018-03-27T20:24:33.975Z,13.32
2018-03-27T20:27:01.506Z,12.00
2018-03-27T20:29:29.041Z,11.70
2018-03-27T20:31:56.580Z,11.15
2018-03-27T20:34:24.119Z,10.60
2018-03-27T20:36:51.645Z,11.20
2018-03-27T20:39:19.201Z,12.30
2018-03-27T20:41:46.733Z,12.30
2018-03-27T20:44:14.261Z,11.75
2018-03-27T20:46:41.800Z,11.70
2018-03-27T20:49:09.378Z,10.90
2018-03-27T20:51:37.089Z,10.32
2018-03-27T20:54:04.661Z,10.25
2018-03-27T20:56:32.197Z,10.25
2018-03-27T20:58:59.738Z,10.70
2018-03-27T21:01:27.274Z,11.00
2018-03-27T21:03:54.830Z,11.95
2018-03-27T21:06:22.369Z,14.82
2018-03-27T21:08:49.931Z,14.80
2018-03-27T21:11:17.458Z,10.98
2018-03-27T21:13:44.999Z,10.50
2018-03-27T21:16:12.547Z,10.15
2018-03-27T21:18:40.073Z,9.38
2018-03-27T21:21:08.620Z,9.10
2018-03-27T21:23:36.139Z,9.75
2018-03-27T21:26:03.431Z,8.88
2018-03-27T21:28:31.926Z,8.32
2018-03-27T21:30:59.628Z,8.55
2018-03-27T21:33:27.179Z,10.20
2018-03-27T21:35:54.713Z,9.52
2018-03-27T21:38:22.241Z,8.93
2018-03-27T21:40:50.698Z,8.25
2018-03-27T21:43:18.233Z,7.97
2018-03-27T21:45:45.769Z,8.30
2018-03-27T21:48:13.329Z,8.40
2018-03-27T21:50:40.852Z,8.50
2018-03-27T21:53:08.396Z,9.05
2018-03-27T21:55:35.917Z,8.95
2018-03-27T21:58:03.444Z,8.50
2018-03-27T22:00:30.965Z,7.82
2018-03-27T22:02:58.490Z,8.75
2018-03-27T22:05:26.021Z,8.30
2018-03-27T22:07:53.545Z,9.00
2018-03-27T22:10:20.861Z,7.97
2018-03-27T22:12:48.381Z,9.10
2018-03-27T22:15:15.907Z,9.07
2018-03-27T22:17:43.433Z,8.57
2018-03-27T22:20:10.964Z,8.55
2018-03-27T22:22:38.500Z,9.07
2018-03-27T22:25:06.035Z,9.15
2018-03-27T22:27:33.562Z,9.20
2018-03-27T22:30:01.088Z,8.55
2018-03-27T22:32:28.617Z,8.57
2018-03-27T22:34:56.146Z,8.65
2018-03-27T22:37:23.667Z,9.00
2018-03-27T22:39:51.225Z,8.20
2018-03-27T22:42:18.749Z,9.60
2018-03-27T22:44:46.292Z,8.30
2018-03-27T22:47:13.832Z,8.13
2018-03-27T22:49:41.393Z,8.52
2018-03-27T22:52:08.932Z,9.15
2018-03-27T22:54:36.489Z,8.07
2018-03-27T22:57:03.801Z,8.63
2018-03-27T22:59:31.349Z,8.30
2018-03-27T23:01:58.877Z,7.95
2018-03-27T23:04:26.437Z,8.13
2018-03-27T23:06:53.972Z,9.00
2018-03-27T23:09:21.519Z,8.40
2018-03-27T23:11:49.081Z,8.90
2018-03-27T23:14:16.622Z,9.05
2018-03-27T23:16:44.151Z,9.13
2018-03-27T23:19:11.689Z,8.50
2018-03-27T23:21:39.208Z,9.57
2018-03-27T23:24:06.756Z,9.20
2018-03-27T23:26:34.281Z,8.55
2018-03-27T23:29:01.830Z,8.98
2018-03-27T23:31:29.363Z,8.93
2018-03-27T23:33:56.887Z,8.98
2018-03-27T23:36:24.421Z,8.35
2018-03-27T23:38:51.944Z,8.80
2018-03-27T23:41:19.242Z,9.75
2018-03-27T23:43:46.766Z,8.38
2018-03-27T23:46:14.292Z,9.48
2018-03-27T23:48:41.823Z,9.73
2018-03-27T23:51:09.118Z,8.75
2018-03-27T23:53:36.661Z,8.68
2018-03-27T23:56:04.191Z,9.85
2018-03-27T23:58:31.737Z,8.38
